This is the latest recevied weather packets stored in our database for station/object LRBS. If no packets are shown the sender has not sent any weather packets the latest 1 day(s).
| Time | Temp. | Humidity | Pressure | Rain* | Wind** | Luminosity | Snow |
|---|---|---|---|---|---|---|---|
| 1778014994 | 15° C | 68% | 1014 hPa | - | 0.89 m/s, 50° | - | - |
| 1778012325 | 17.22° C | 56% | 1014 hPa | - | 1.34 m/s, 70° | - | - |
| 1778011394 | 17.22° C | 56% | 1014 hPa | - | 1.34 m/s, 70° | - | - |
| 1778010494 | 16.11° C | 59% | 1014 hPa | - | 1.34 m/s, 80° | - | - |
| 1778009594 | 16.11° C | 59% | 1014 hPa | - | 1.34 m/s, 80° | - | - |
| 1778008694 | 17.22° C | 59% | 1014 hPa | - | 1.34 m/s, 110° | - | - |
| 1778007794 | 17.22° C | 59% | 1014 hPa | - | 1.34 m/s, 110° | - | - |
| 1778006895 | 17.22° C | 59% | 1014 hPa | - | 1.34 m/s, 120° | - | - |
| 1778005994 | 17.22° C | 59% | 1014 hPa | - | 1.34 m/s, 120° | - | - |
| 1778005095 | 20° C | 53% | 1013 hPa | - | 1.34 m/s, 90° | - | - |
| 1778004194 | 20° C | 53% | 1013 hPa | - | 1.34 m/s, 90° | - | - |
| 1778001494 | 21.11° C | 50% | 1013 hPa | - | 2.24 m/s, 230° | - | - |
| 1778000594 | 21.11° C | 50% | 1013 hPa | - | 2.24 m/s, 230° | - | - |
| 1777999694 | 22.22° C | 47% | 1013 hPa | - | 1.34 m/s, 250° | - | - |
| 1777998794 | 22.22° C | 47% | 1013 hPa | - | 1.34 m/s, 250° | - | - |
| 1777997895 | 22.78° C | 47% | 1013 hPa | - | 1.34 m/s, 240° | - | - |
| 1777996994 | 22.78° C | 47% | 1013 hPa | - | 1.34 m/s, 240° | - | - |
| 1777996094 | 22.78° C | 44% | 1013 hPa | - | 1.34 m/s, 280° | - | - |
| 1777995194 | 22.78° C | 44% | 1013 hPa | - | 1.34 m/s, 280° | - | - |
| 1777992494 | 25° C | 34% | 1014 hPa | - | 1.34 m/s, 240° | - | - |
| 1777991594 | 25° C | 34% | 1014 hPa | - | 1.34 m/s, 240° | - | - |
| 1777987094 | 25° C | 39% | 1014 hPa | - | 2.68 m/s, 250° | - | - |
| 1777986194 | 25° C | 39% | 1014 hPa | - | 2.68 m/s, 250° | - | - |
| 1777982599 | 22.78° C | 41% | 1015 hPa | - | 2.68 m/s, 230° | - | - |
| 1777981701 | 22.78° C | 41% | 1015 hPa | - | 2.68 m/s, 230° | - | - |
* Rain since midnight (hover to see other rain measurements)
** Current wind speed in m/s (hover to see current wind gust speed)